Time;durP1;ratioP1;P1;durP2;ratioP2;P2;SDS_P1;SDS_P2;PMS_P1;PMS_P2;Temp;Humidity;BMP_temperature;BMP_pressure;BME280_temperature;BME280_humidity;BME280_pressure;Samples;Min_cycle;Max_cycle;Signal;HPM_P1;HPM_P2
2023/07/31 00:00:06;;;;;;;12.68;2.38;;;15.90;99.90;;;;;;5013678;28;20034;-70
2023/07/31 00:02:31;;;;;;;15.07;2.80;;;16.00;99.90;;;;;;5017885;28;20125;-69
2023/07/31 00:04:57;;;;;;;21.50;3.72;;;16.10;99.90;;;;;;5013288;28;20614;-69
2023/07/31 00:07:23;;;;;;;18.33;3.75;;;16.10;99.90;;;;;;5016099;28;20507;-70
2023/07/31 00:09:48;;;;;;;23.80;4.38;;;16.20;99.90;;;;;;5017651;28;20112;-70
2023/07/31 00:12:14;;;;;;;23.75;4.65;;;16.30;99.90;;;;;;5015514;28;20029;-72
2023/07/31 00:14:39;;;;;;;34.42;5.75;;;16.40;99.90;;;;;;5015855;28;20049;-70
2023/07/31 00:17:05;;;;;;;33.90;6.10;;;16.40;99.90;;;;;;5018240;28;20059;-72
2023/07/31 00:19:31;;;;;;;32.35;5.93;;;16.50;99.90;;;;;;5014683;28;20045;-70
2023/07/31 00:21:56;;;;;;;27.33;5.15;;;16.50;99.90;;;;;;5017986;28;20065;-71
2023/07/31 00:24:22;;;;;;;28.90;5.55;;;16.60;99.90;;;;;;5017543;28;20021;-73
2023/07/31 00:26:47;;;;;;;37.95;6.60;;;16.60;99.90;;;;;;5014424;28;20037;-70
2023/07/31 00:29:13;;;;;;;30.45;5.50;;;16.70;99.90;;;;;;5015813;28;20056;-70
2023/07/31 00:31:38;;;;;;;31.00;4.70;;;16.70;99.90;;;;;;5014683;28;20033;-69
2023/07/31 00:34:04;;;;;;;23.92;5.07;;;16.70;99.90;;;;;;5015944;28;20579;-71
2023/07/31 00:36:30;;;;;;;20.13;4.57;;;16.70;99.90;;;;;;5017297;28;20593;-70
2023/07/31 00:38:55;;;;;;;29.20;5.40;;;16.70;99.90;;;;;;5013894;28;20038;-69
2023/07/31 00:41:21;;;;;;;26.90;5.32;;;16.70;99.90;;;;;;5017064;28;20034;-70
2023/07/31 00:43:46;;;;;;;26.50;4.53;;;16.60;99.90;;;;;;5014588;28;20030;-72
2023/07/31 00:46:12;;;;;;;28.30;6.03;;;16.60;99.90;;;;;;5015985;28;20442;-71
2023/07/31 00:48:39;;;;;;;20.85;4.95;;;16.60;99.90;;;;;;5015683;28;20113;-72
2023/07/31 00:51:04;;;;;;;25.67;5.75;;;16.70;99.90;;;;;;5014290;28;20518;-71
2023/07/31 00:53:30;;;;;;;19.48;4.90;;;16.60;99.90;;;;;;5017625;28;20042;-70
2023/07/31 00:55:57;;;;;;;16.98;4.75;;;16.70;99.90;;;;;;5015366;28;20034;-71
2023/07/31 00:58:22;;;;;;;20.60;4.05;;;16.60;99.90;;;;;;5014878;28;20120;-70
2023/07/31 01:00:50;;;;;;;21.05;4.38;;;16.60;99.90;;;;;;5019788;28;20116;-70
2023/07/31 01:03:15;;;;;;;23.63;3.83;;;16.70;99.90;;;;;;5017619;28;20761;-69
2023/07/31 01:06:15;;;;;;;27.50;4.30;;;16.60;99.90;;;;;;5012403;28;20092;-70
2023/07/31 01:09:05;;;;;;;21.15;3.60;;;16.60;99.90;;;;;;5014396;28;20049;-69
2023/07/31 01:11:35;;;;;;;21.42;5.47;;;16.60;99.90;;;;;;5013121;28;20109;-71
2023/07/31 01:14:00;;;;;;;29.88;4.07;;;16.60;99.90;;;;;;5020663;28;20079;-70
2023/07/31 01:16:26;;;;;;;25.55;4.35;;;16.60;99.90;;;;;;5014353;28;20122;-69
2023/07/31 01:18:52;;;;;;;35.92;4.18;;;16.60;99.90;;;;;;5018375;28;20033;-69
2023/07/31 01:21:21;;;;;;;24.95;4.32;;;16.60;99.90;;;;;;5020418;28;20566;-70
2023/07/31 01:24:08;;;;;;;19.75;3.83;;;16.60;99.90;;;;;;5018822;28;20042;-69
2023/07/31 01:26:36;;;;;;;18.70;3.47;;;16.60;99.90;;;;;;5021112;28;20447;-71
2023/07/31 01:29:04;;;;;;;27.42;4.28;;;16.60;99.90;;;;;;5019239;28;20024;-70
2023/07/31 01:31:32;;;;;;;25.70;4.40;;;16.60;99.90;;;;;;5018001;28;20128;-72
2023/07/31 01:34:01;;;;;;;23.73;4.50;;;16.60;99.90;;;;;;5021156;28;20057;-70
2023/07/31 01:36:28;;;;;;;32.65;4.95;;;16.50;99.90;;;;;;5017198;28;20057;-70
2023/07/31 01:39:01;;;;;;;14.38;3.72;;;16.60;99.90;;;;;;5018319;28;20030;-71
2023/07/31 01:41:27;;;;;;;33.20;4.55;;;16.60;99.90;;;;;;5017210;28;20030;-71
2023/07/31 01:43:52;;;;;;;18.50;4.28;;;16.60;99.90;;;;;;5021335;28;20039;-72
2023/07/31 01:46:18;;;;;;;20.63;4.22;;;16.60;99.90;;;;;;5017328;28;20026;-71
2023/07/31 01:48:44;;;;;;;15.95;3.53;;;16.60;99.90;;;;;;5018104;28;20483;-71
2023/07/31 01:51:09;;;;;;;12.73;2.80;;;16.50;99.90;;;;;;5024168;28;20084;-71
2023/07/31 01:53:35;;;;;;;17.85;3.28;;;16.50;99.90;;;;;;5018739;28;20041;-71
2023/07/31 01:56:00;;;;;;;17.30;3.35;;;16.40;99.90;;;;;;5020201;28;20087;-72
2023/07/31 01:58:26;;;;;;;17.23;2.85;;;16.40;99.90;;;;;;5017872;28;20132;-74
2023/07/31 02:00:52;;;;;;;10.55;2.10;;;16.40;99.90;;;;;;5019652;28;20163;-72
2023/07/31 02:03:17;;;;;;;14.20;2.95;;;16.40;99.90;;;;;;5014465;28;20471;-75
2023/07/31 02:05:47;;;;;;;15.63;3.63;;;16.30;99.90;;;;;;5018378;28;20050;-73
2023/07/31 02:08:12;;;;;;;20.63;3.03;;;16.30;99.90;;;;;;5020155;28;20120;-72
2023/07/31 02:10:38;;;;;;;17.83;3.33;;;16.30;99.90;;;;;;5018605;28;20148;-72
2023/07/31 02:13:04;;;;;;;22.05;4.18;;;16.30;99.90;;;;;;5018849;28;20053;-72
2023/07/31 02:15:30;;;;;;;16.48;3.08;;;16.30;99.90;;;;;;5019060;28;20041;-72
2023/07/31 02:17:56;;;;;;;15.98;4.35;;;16.30;99.90;;;;;;5017881;28;20041;-72
2023/07/31 02:20:21;;;;;;;19.63;3.75;;;16.30;99.90;;;;;;5014991;28;20025;-72
2023/07/31 02:22:47;;;;;;;23.92;4.03;;;16.30;99.90;;;;;;5015975;28;20066;-72
2023/07/31 02:25:13;;;;;;;24.83;3.92;;;16.30;99.90;;;;;;5017281;28;20030;-70
2023/07/31 02:27:38;;;;;;;18.70;3.67;;;16.30;99.90;;;;;;5015942;28;20622;-71
2023/07/31 02:30:04;;;;;;;16.77;4.20;;;16.30;99.90;;;;;;5018504;28;20116;-71
2023/07/31 02:32:30;;;;;;;15.27;3.58;;;16.30;99.90;;;;;;5017316;28;20124;-70
2023/07/31 02:34:56;;;;;;;18.08;3.85;;;16.30;99.90;;;;;;5018489;28;20090;-72
2023/07/31 02:37:21;;;;;;;24.20;4.03;;;16.30;99.90;;;;;;5014742;28;20049;-71
2023/07/31 02:39:47;;;;;;;15.07;3.90;;;16.30;99.90;;;;;;5016312;28;20120;-71
2023/07/31 02:42:13;;;;;;;21.00;4.45;;;16.40;99.90;;;;;;5018684;28;20578;-70
2023/07/31 02:44:39;;;;;;;24.92;4.75;;;16.40;99.90;;;;;;5015034;28;20033;-69
2023/07/31 02:47:04;;;;;;;29.02;5.82;;;16.40;99.90;;;;;;5018783;28;20060;-71
2023/07/31 02:49:30;;;;;;;20.08;4.78;;;16.40;99.90;;;;;;5018072;28;20030;-70
2023/07/31 02:51:56;;;;;;;27.30;4.93;;;16.40;99.90;;;;;;5020464;28;20054;-70
2023/07/31 02:54:21;;;;;;;19.33;3.83;;;16.40;99.90;;;;;;5018829;28;20029;-70
2023/07/31 02:56:47;;;;;;;28.98;4.97;;;16.40;99.90;;;;;;5018643;28;20562;-71
2023/07/31 02:59:13;;;;;;;24.75;5.47;;;16.40;99.90;;;;;;5020708;28;20837;-72
2023/07/31 03:01:39;;;;;;;19.55;4.78;;;16.40;99.90;;;;;;5017497;28;20057;-71
2023/07/31 03:04:04;;;;;;;22.88;4.25;;;16.40;99.90;;;;;;5018171;28;20103;-71
2023/07/31 03:06:30;;;;;;;21.27;4.68;;;16.40;99.90;;;;;;5018888;28;20083;-70
2023/07/31 03:08:55;;;;;;;22.73;4.10;;;16.40;99.90;;;;;;5017450;28;20091;-70
2023/07/31 03:11:21;;;;;;;25.15;4.40;;;16.40;99.90;;;;;;5013580;28;20037;-69
2023/07/31 03:13:47;;;;;;;19.08;3.55;;;16.40;99.90;;;;;;5018892;28;20671;-71
2023/07/31 03:16:13;;;;;;;22.60;4.40;;;16.40;99.90;;;;;;5017256;28;20030;-71
2023/07/31 03:18:38;;;;;;;21.75;4.05;;;16.40;99.90;;;;;;5019607;28;20036;-70
2023/07/31 03:21:04;;;;;;;19.95;4.15;;;16.40;99.90;;;;;;5018269;28;20427;-71
2023/07/31 03:23:30;;;;;;;20.17;4.93;;;16.40;99.90;;;;;;5012807;28;20120;-70
2023/07/31 03:26:02;;;;;;;16.88;3.90;;;16.30;99.90;;;;;;5015889;28;20539;-69
2023/07/31 03:28:28;;;;;;;22.33;5.03;;;16.30;99.90;;;;;;5015760;28;20037;-72
2023/07/31 03:30:54;;;;;;;20.02;4.03;;;16.40;99.90;;;;;;5017600;28;20037;-71
2023/07/31 03:33:20;;;;;;;20.13;4.20;;;16.30;99.90;;;;;;5016758;28;20399;-71
2023/07/31 03:35:46;;;;;;;20.95;4.15;;;16.30;99.90;;;;;;5019809;28;20368;-71
2023/07/31 03:38:11;;;;;;;16.85;4.15;;;16.30;99.90;;;;;;5016119;28;20104;-70
2023/07/31 03:40:37;;;;;;;16.52;3.53;;;16.30;99.90;;;;;;5014588;28;25303;-71
2023/07/31 03:43:02;;;;;;;16.27;3.50;;;16.30;99.90;;;;;;5016062;28;20129;-71
2023/07/31 03:45:28;;;;;;;15.55;3.72;;;16.30;99.90;;;;;;5015287;28;20041;-71
2023/07/31 03:47:54;;;;;;;18.77;4.18;;;16.30;99.90;;;;;;5021333;28;20479;-70
2023/07/31 03:50:20;;;;;;;15.75;3.38;;;16.30;99.90;;;;;;5015261;28;20041;-71
2023/07/31 03:52:46;;;;;;;18.60;4.90;;;16.30;99.90;;;;;;5015755;28;20030;-72
2023/07/31 03:55:11;;;;;;;12.70;3.90;;;16.30;99.90;;;;;;5018628;28;20037;-69
2023/07/31 03:57:37;;;;;;;19.52;3.50;;;16.30;99.90;;;;;;5017239;28;20046;-71
2023/07/31 04:00:03;;;;;;;19.13;4.00;;;16.30;99.90;;;;;;5015141;28;20034;-71
2023/07/31 04:02:29;;;;;;;19.30;4.65;;;16.20;99.90;;;;;;5016357;28;20038;-71
2023/07/31 04:04:54;;;;;;;19.13;4.82;;;16.30;99.90;;;;;;5017835;28;20037;-71
2023/07/31 04:07:20;;;;;;;18.95;3.65;;;16.20;99.90;;;;;;5015026;28;20108;-70
2023/07/31 04:09:45;;;;;;;13.43;3.33;;;16.20;99.90;;;;;;5017122;28;20057;-72
2023/07/31 04:12:11;;;;;;;23.00;4.53;;;16.20;99.90;;;;;;5015770;28;20453;-71
2023/07/31 04:14:37;;;;;;;27.55;3.90;;;16.20;99.90;;;;;;5017439;28;20414;-71
2023/07/31 04:17:02;;;;;;;13.13;3.65;;;16.10;99.90;;;;;;5014958;28;20032;-71
2023/07/31 04:19:28;;;;;;;20.38;4.10;;;16.20;99.90;;;;;;5016290;28;20120;-71
2023/07/31 04:21:53;;;;;;;21.55;4.05;;;16.10;99.90;;;;;;5022795;28;20484;-71
2023/07/31 04:24:24;;;;;;;23.48;3.70;;;16.20;99.90;;;;;;5015679;28;20034;-69
2023/07/31 04:26:50;;;;;;;20.15;4.15;;;16.10;99.90;;;;;;5015702;28;20041;-70
2023/07/31 04:29:15;;;;;;;15.70;3.83;;;16.10;99.90;;;;;;5015469;28;20037;-70
2023/07/31 04:31:41;;;;;;;14.40;3.65;;;16.00;99.90;;;;;;5010093;28;20088;-69
2023/07/31 04:34:07;;;;;;;19.27;4.00;;;16.10;99.90;;;;;;5016545;28;20039;-73
2023/07/31 04:36:34;;;;;;;21.30;4.53;;;16.10;99.90;;;;;;5015846;28;20110;-72
2023/07/31 04:39:00;;;;;;;16.13;3.40;;;16.00;99.90;;;;;;5016689;28;20038;-70
2023/07/31 04:41:26;;;;;;;16.63;3.80;;;16.10;99.90;;;;;;5015726;28;20048;-71
2023/07/31 04:43:51;;;;;;;14.27;3.75;;;16.00;99.90;;;;;;5015878;28;20026;-71
2023/07/31 04:46:17;;;;;;;12.93;3.65;;;16.00;99.90;;;;;;5018035;28;20498;-71
2023/07/31 04:48:43;;;;;;;15.85;2.80;;;16.00;99.90;;;;;;5013055;28;20491;-70
2023/07/31 04:51:09;;;;;;;18.30;3.40;;;16.00;99.90;;;;;;5018549;28;20026;-71
2023/07/31 04:53:35;;;;;;;12.30;2.88;;;16.00;99.90;;;;;;5016363;28;20033;-73
2023/07/31 04:56:01;;;;;;;12.52;4.07;;;16.10;99.90;;;;;;5019689;28;20117;-70
2023/07/31 04:58:26;;;;;;;12.63;3.15;;;16.00;99.90;;;;;;5020870;28;20124;-73
2023/07/31 05:00:52;;;;;;;15.13;3.92;;;16.00;99.90;;;;;;5019315;28;20069;-71
2023/07/31 05:03:17;;;;;;;10.82;2.80;;;16.00;99.90;;;;;;5016667;28;20426;-72
2023/07/31 05:05:43;;;;;;;8.70;2.97;;;16.00;99.90;;;;;;5013193;28;20046;-70
2023/07/31 05:08:09;;;;;;;10.38;2.85;;;15.90;99.90;;;;;;5014132;28;20049;-71
2023/07/31 05:10:34;;;;;;;14.38;3.28;;;16.00;99.90;;;;;;5013660;28;20059;-72
2023/07/31 05:13:00;;;;;;;11.52;3.28;;;16.00;99.90;;;;;;5018054;28;20030;-71
2023/07/31 05:15:25;;;;;;;13.18;2.60;;;16.00;99.90;;;;;;5013818;28;20049;-72
2023/07/31 05:17:51;;;;;;;9.00;2.85;;;15.90;99.90;;;;;;5015503;28;20038;-70
2023/07/31 05:20:16;;;;;;;9.70;2.38;;;15.90;99.90;;;;;;5019359;28;20056;-71
2023/07/31 05:22:42;;;;;;;7.70;2.40;;;15.90;99.90;;;;;;5011329;28;20038;-71
2023/07/31 05:25:08;;;;;;;12.50;3.10;;;15.90;99.90;;;;;;5015490;28;20033;-70
2023/07/31 05:27:34;;;;;;;9.75;2.75;;;15.90;99.90;;;;;;5016071;28;20041;-70
2023/07/31 05:29:59;;;;;;;8.65;2.60;;;15.90;99.90;;;;;;5010476;28;20087;-71
2023/07/31 05:32:25;;;;;;;11.23;2.33;;;15.90;99.90;;;;;;5011242;28;20491;-71
2023/07/31 05:34:52;;;;;;;12.30;2.53;;;15.90;99.90;;;;;;5017425;28;20376;-69
2023/07/31 05:37:18;;;;;;;14.32;3.03;;;15.90;99.90;;;;;;5018045;28;20095;-71
2023/07/31 05:39:43;;;;;;;10.20;3.00;;;15.90;99.90;;;;;;5016943;28;20038;-70
2023/07/31 05:42:09;;;;;;;10.88;2.80;;;16.00;99.90;;;;;;5013957;28;20048;-70
2023/07/31 05:44:35;;;;;;;10.18;2.05;;;16.00;99.90;;;;;;5019913;28;20040;-70
2023/07/31 05:47:00;;;;;;;11.18;3.00;;;16.00;99.90;;;;;;5013045;28;20503;-71
2023/07/31 05:49:26;;;;;;;11.07;2.50;;;16.00;99.90;;;;;;5014552;28;20037;-69
2023/07/31 05:51:51;;;;;;;9.80;2.72;;;16.00;99.90;;;;;;5017085;28;20129;-70
2023/07/31 05:54:17;;;;;;;18.98;3.17;;;16.00;99.90;;;;;;5014903;28;20037;-71
2023/07/31 05:56:42;;;;;;;9.20;2.67;;;16.00;99.90;;;;;;5015628;28;20579;-70
2023/07/31 05:59:13;;;;;;;9.60;2.35;;;16.00;99.90;;;;;;5022023;28;20034;-72
2023/07/31 06:01:38;;;;;;;9.30;2.20;;;16.00;99.90;;;;;;5013509;28;20041;-70
2023/07/31 06:04:04;;;;;;;7.40;2.25;;;16.00;99.90;;;;;;5015322;28;20380;-69
2023/07/31 06:06:29;;;;;;;7.47;1.67;;;16.00;99.90;;;;;;5019262;28;20539;-72
2023/07/31 06:08:55;;;;;;;9.20;1.77;;;16.00;99.90;;;;;;5016344;28;20072;-72
2023/07/31 06:11:21;;;;;;;7.00;2.13;;;16.00;99.90;;;;;;5013310;28;20025;-71
2023/07/31 06:13:48;;;;;;;8.05;1.90;;;16.10;99.90;;;;;;5010761;28;20061;-72
2023/07/31 06:16:15;;;;;;;8.63;2.00;;;16.10;99.90;;;;;;5020699;28;20490;-71
2023/07/31 06:18:41;;;;;;;7.05;1.58;;;16.10;99.90;;;;;;5010237;28;20034;-72
2023/07/31 06:21:06;;;;;;;9.15;1.70;;;16.20;99.90;;;;;;5014055;28;20130;-72
2023/07/31 06:23:32;;;;;;;6.45;1.70;;;16.20;99.90;;;;;;5015675;28;20046;-72
2023/07/31 06:25:57;;;;;;;4.13;1.30;;;16.20;99.90;;;;;;5012310;28;21471;-70
2023/07/31 06:28:30;;;;;;;4.60;1.30;;;16.20;99.90;;;;;;5018046;28;20407;-71
2023/07/31 06:30:57;;;;;;;6.28;1.48;;;16.20;99.90;;;;;;5011940;28;20085;-71
2023/07/31 06:33:22;;;;;;;9.20;1.67;;;16.20;99.90;;;;;;5014052;28;20045;-68
2023/07/31 06:35:48;;;;;;;9.15;2.65;;;16.20;99.90;;;;;;5021274;28;20033;-72
2023/07/31 06:38:14;;;;;;;9.65;2.20;;;16.30;99.90;;;;;;5012493;28;20033;-69
2023/07/31 06:40:39;;;;;;;6.03;1.52;;;16.30;99.90;;;;;;5014568;28;20068;-70
2023/07/31 06:43:08;;;;;;;7.90;1.55;;;16.30;99.90;;;;;;5015954;28;20125;-72
2023/07/31 06:45:35;;;;;;;4.82;2.08;;;16.40;99.90;;;;;;5006761;28;20034;-72
2023/07/31 06:48:02;;;;;;;8.65;2.28;;;16.40;99.90;;;;;;5014043;28;20523;-72
2023/07/31 06:50:31;;;;;;;6.53;2.30;;;16.50;99.90;;;;;;5021310;28;20053;-68
2023/07/31 06:52:57;;;;;;;6.25;1.85;;;16.50;99.90;;;;;;5016244;28;20183;-68
2023/07/31 06:55:23;;;;;;;4.07;1.58;;;16.60;99.90;;;;;;5015378;28;20061;-70
2023/07/31 06:57:51;;;;;;;6.55;1.48;;;16.60;99.90;;;;;;5015694;28;20108;-70
2023/07/31 07:00:17;;;;;;;3.45;1.42;;;16.60;99.90;;;;;;5015628;28;20041;-70
2023/07/31 07:02:43;;;;;;;7.82;2.10;;;16.60;99.90;;;;;;5011498;28;20116;-69
2023/07/31 07:05:09;;;;;;;6.15;1.63;;;16.60;99.90;;;;;;5016268;28;20065;-72
2023/07/31 07:07:35;;;;;;;5.97;1.30;;;16.70;99.90;;;;;;5010112;28;20116;-70
2023/07/31 07:10:01;;;;;;;4.05;1.00;;;16.60;99.90;;;;;;5007437;28;20045;-70
2023/07/31 07:12:31;;;;;;;3.83;1.10;;;16.70;99.90;;;;;;5013317;28;20025;-73
2023/07/31 07:15:00;;;;;;;4.22;1.75;;;16.70;99.90;;;;;;5011972;28;20529;-71
2023/07/31 07:17:27;;;;;;;8.60;2.10;;;16.70;99.90;;;;;;5011013;28;20125;-71
2023/07/31 07:19:53;;;;;;;3.03;1.13;;;16.70;99.90;;;;;;5013044;28;20113;-71
2023/07/31 07:22:19;;;;;;;2.70;1.17;;;16.70;99.90;;;;;;5009595;28;20530;-73
2023/07/31 07:24:44;;;;;;;2.55;0.93;;;16.70;99.90;;;;;;5013761;28;20033;-70
2023/07/31 07:27:10;;;;;;;2.75;1.20;;;16.70;99.90;;;;;;5013409;28;20038;-71
2023/07/31 07:29:37;;;;;;;2.05;0.95;;;16.70;99.90;;;;;;5013373;28;20036;-71
2023/07/31 07:32:03;;;;;;;3.65;0.98;;;16.80;99.90;;;;;;5009307;28;20073;-72
2023/07/31 07:34:29;;;;;;;3.50;1.20;;;16.80;99.90;;;;;;5012797;28;20478;-71
2023/07/31 07:36:55;;;;;;;6.00;1.10;;;16.80;99.90;;;;;;5012378;28;20041;-70
2023/07/31 07:39:21;;;;;;;3.45;0.90;;;16.80;99.90;;;;;;5014505;28;20030;-72
2023/07/31 07:41:47;;;;;;;3.35;0.63;;;17.00;99.90;;;;;;5012931;28;20056;-72
2023/07/31 07:44:13;;;;;;;1.00;0.50;;;17.00;99.90;;;;;;5015675;28;20041;-70
2023/07/31 07:46:39;;;;;;;1.52;0.50;;;17.10;99.90;;;;;;5009863;28;20048;-69
2023/07/31 07:49:05;;;;;;;1.30;0.60;;;17.10;99.90;;;;;;5015281;28;20037;-70
2023/07/31 07:51:31;;;;;;;2.05;0.65;;;17.10;99.90;;;;;;5013540;28;20080;-71
2023/07/31 07:53:57;;;;;;;3.22;0.60;;;17.20;99.90;;;;;;5010143;28;20030;-71
2023/07/31 08:01:34;;;;;;;2.22;0.57;;;17.20;99.90;;;;;;5949105;22;20052;-73
2023/07/31 08:03:59;;;;;;;4.22;0.73;;;17.20;99.90;;;;;;5043912;28;20029;-73
2023/07/31 08:06:25;;;;;;;2.03;0.52;;;17.20;99.90;;;;;;5039492;28;20055;-73
2023/07/31 08:08:51;;;;;;;2.08;0.60;;;17.30;99.90;;;;;;5042714;28;20032;-71
2023/07/31 08:11:16;;;;;;;0.88;0.50;;;17.40;99.90;;;;;;5042459;28;20072;-73
2023/07/31 08:13:42;;;;;;;1.05;0.50;;;17.40;99.90;;;;;;5041624;28;20371;-72
2023/07/31 08:16:08;;;;;;;1.13;0.55;;;17.50;99.90;;;;;;5044346;28;20063;-73
2023/07/31 08:18:34;;;;;;;1.02;0.60;;;17.60;99.90;;;;;;5043549;28;20041;-73
2023/07/31 08:21:01;;;;;;;0.85;0.40;;;17.70;99.90;;;;;;5042368;28;20036;-73
2023/07/31 08:23:26;;;;;;;2.25;0.65;;;17.80;99.90;;;;;;5042237;28;20568;-72
2023/07/31 08:25:52;;;;;;;1.80;0.45;;;17.90;99.90;;;;;;5043080;28;20029;-71
2023/07/31 08:28:17;;;;;;;1.65;0.50;;;17.80;99.90;;;;;;5046539;28;20463;-72
2023/07/31 08:30:43;;;;;;;1.40;0.30;;;17.80;99.90;;;;;;5047472;28;20049;-72
2023/07/31 08:33:08;;;;;;;2.20;0.68;;;17.80;99.90;;;;;;5047301;28;20498;-74
2023/07/31 08:35:34;;;;;;;0.47;0.30;;;17.80;99.90;;;;;;5045144;28;20044;-72
2023/07/31 08:38:00;;;;;;;0.60;0.40;;;17.90;99.90;;;;;;5046431;28;20056;-72
2023/07/31 08:40:26;;;;;;;2.58;0.65;;;17.80;99.90;;;;;;5046581;28;20102;-73
2023/07/31 08:42:53;;;;;;;0.88;0.30;;;17.80;99.90;;;;;;5047293;28;20532;-71
2023/07/31 08:45:20;;;;;;;2.88;0.40;;;17.80;99.90;;;;;;5046800;28;20033;-75
2023/07/31 08:47:48;;;;;;;1.75;0.55;;;17.80;99.90;;;;;;5047586;28;20043;-73
2023/07/31 08:50:14;;;;;;;1.90;0.80;;;17.80;99.90;;;;;;5047730;28;20033;-72
2023/07/31 08:52:40;;;;;;;2.22;0.50;;;17.70;99.90;;;;;;5045699;28;20112;-73
2023/07/31 08:55:07;;;;;;;1.00;0.38;;;17.70;99.90;;;;;;5047112;28;20137;-72
2023/07/31 08:57:37;;;;;;;2.17;0.55;;;17.70;99.90;;;;;;5046424;28;20967;-73
2023/07/31 09:00:05;;;;;;;1.70;0.40;;;17.70;99.90;;;;;;5045998;28;20477;-73
2023/07/31 09:02:56;;;;;;;1.33;0.50;;;17.70;99.90;;;;;;5041756;28;20040;-73
2023/07/31 09:05:23;;;;;;;2.10;0.40;;;17.80;99.90;;;;;;5035456;28;20040;-73
2023/07/31 09:07:50;;;;;;;3.08;0.57;;;17.90;99.90;;;;;;5046349;28;20041;-72
2023/07/31 09:10:15;;;;;;;2.22;0.60;;;18.00;99.90;;;;;;5047504;28;20051;-72
2023/07/31 09:12:41;;;;;;;0.98;0.50;;;17.90;99.90;;;;;;5043790;28;20025;-72
2023/07/31 09:15:08;;;;;;;1.65;0.95;;;18.00;99.90;;;;;;5045712;28;20029;-72
2023/07/31 09:17:38;;;;;;;2.15;0.60;;;18.10;99.90;;;;;;5046153;28;20032;-73
2023/07/31 09:20:13;;;;;;;;;;;18.10;99.90;;;;;;5047147;28;20029;-73
2023/07/31 09:22:39;;;;;;;1.05;0.43;;;18.10;99.90;;;;;;5045735;28;19924;-72
2023/07/31 09:25:25;;;;;;;1.08;0.57;;;18.10;99.90;;;;;;5045561;28;20037;-71
2023/07/31 09:27:55;;;;;;;1.83;0.47;;;18.20;99.90;;;;;;5046101;28;20037;-73
2023/07/31 09:30:21;;;;;;;2.42;0.40;;;18.10;99.90;;;;;;5046156;28;20068;-73
2023/07/31 09:32:49;;;;;;;1.25;0.68;;;18.20;99.90;;;;;;5044862;28;20052;-73
2023/07/31 09:35:22;;;;;;;2.13;0.70;;;18.20;99.90;;;;;;5045824;28;20037;-73
2023/07/31 09:37:51;;;;;;;1.95;0.40;;;18.20;99.90;;;;;;5045365;28;20075;-72
2023/07/31 09:40:29;;;;;;;1.70;0.50;;;18.20;99.90;;;;;;5046614;28;20102;-72
2023/07/31 09:43:03;;;;;;;0.40;0.30;;;18.20;99.90;;;;;;5046436;28;20090;-73
2023/07/31 09:45:30;;;;;;;2.80;0.30;;;18.10;99.90;;;;;;5045191;28;20096;-74
2023/07/31 09:47:56;;;;;;;1.35;0.52;;;18.10;99.90;;;;;;5045357;28;20037;-73
2023/07/31 09:50:24;;;;;;;3.35;0.60;;;18.10;99.90;;;;;;5042318;28;20528;-72
2023/07/31 09:52:51;;;;;;;1.55;0.60;;;18.10;99.90;;;;;;5045182;28;20068;-74
2023/07/31 09:55:17;;;;;;;0.90;0.50;;;18.10;99.90;;;;;;5046753;28;20041;-73
2023/07/31 09:57:48;;;;;;;1.33;0.73;;;18.20;99.90;;;;;;5043104;28;20112;-73
2023/07/31 10:00:17;;;;;;;1.77;0.93;;;18.20;99.90;;;;;;5043106;28;20295;-72
2023/07/31 10:02:45;;;;;;;2.63;0.70;;;18.20;99.90;;;;;;5045301;28;20037;-73
2023/07/31 10:05:16;;;;;;;1.33;0.80;;;18.20;99.90;;;;;;5046328;28;20044;-74
2023/07/31 10:07:45;;;;;;;2.28;0.70;;;18.20;99.90;;;;;;5045166;28;20063;-73
2023/07/31 10:10:12;;;;;;;2.45;0.93;;;18.20;99.90;;;;;;5045640;28;20037;-72
2023/07/31 10:12:38;;;;;;;1.38;0.70;;;18.20;99.90;;;;;;5045302;28;20051;-72
2023/07/31 10:15:05;;;;;;;1.83;0.88;;;18.20;99.90;;;;;;5045123;28;20465;-73
2023/07/31 10:17:33;;;;;;;1.50;0.80;;;18.30;99.90;;;;;;5044316;28;20033;-72
2023/07/31 10:20:01;;;;;;;1.83;0.93;;;18.30;99.90;;;;;;5044146;28;20477;-73
2023/07/31 10:22:27;;;;;;;2.88;1.27;;;18.40;99.90;;;;;;5043160;28;20140;-72
2023/07/31 10:24:57;;;;;;;5.22;1.05;;;18.40;99.90;;;;;;5042950;28;20057;-73
2023/07/31 10:27:22;;;;;;;2.50;0.95;;;18.40;99.90;;;;;;5044996;28;20028;-73
2023/07/31 10:29:50;;;;;;;2.15;1.42;;;18.40;99.90;;;;;;5043321;28;20758;-73
2023/07/31 10:32:17;;;;;;;2.20;1.02;;;18.30;99.90;;;;;;5045130;28;20036;-73
2023/07/31 10:34:43;;;;;;;1.65;1.17;;;18.40;99.90;;;;;;5040471;28;20043;-72
2023/07/31 10:37:29;;;;;;;3.67;0.90;;;18.40;99.90;;;;;;5042958;28;20033;-72
2023/07/31 10:40:04;;;;;;;2.38;1.35;;;18.30;99.90;;;;;;5043455;28;20068;-73
2023/07/31 10:42:37;;;;;;;3.47;1.17;;;18.30;99.90;;;;;;5043450;28;20041;-72
2023/07/31 10:45:09;;;;;;;2.75;1.25;;;18.40;99.90;;;;;;5045651;28;20029;-72
2023/07/31 10:47:45;;;;;;;1.55;0.80;;;18.40;99.90;;;;;;5044142;28;20061;-73
2023/07/31 10:50:18;;;;;;;2.92;1.30;;;18.50;99.90;;;;;;5044688;28;20031;-73
2023/07/31 10:52:49;;;;;;;2.47;1.08;;;18.50;99.90;;;;;;5045269;28;20159;-72
2023/07/31 10:55:31;;;;;;;3.58;1.40;;;18.50;99.90;;;;;;5060266;28;20025;-73
2023/07/31 10:58:04;;;;;;;2.60;1.25;;;18.50;99.90;;;;;;5054817;28;20063;-72
2023/07/31 11:00:30;;;;;;;2.80;1.00;;;18.50;99.90;;;;;;5050325;28;20035;-73
2023/07/31 11:03:00;;;;;;;3.35;0.80;;;18.50;99.90;;;;;;5044387;28;20037;-73
2023/07/31 11:05:46;;;;;;;1.70;0.70;;;18.40;99.90;;;;;;5039920;28;20103;-73
2023/07/31 11:08:19;;;;;;;2.63;0.63;;;18.40;99.90;;;;;;5043564;28;20279;-73
2023/07/31 11:10:46;;;;;;;1.45;0.80;;;18.40;99.90;;;;;;5043059;28;20033;-73
2023/07/31 11:13:12;;;;;;;1.15;0.63;;;18.40;99.90;;;;;;5045501;28;20091;-72
2023/07/31 11:15:37;;;;;;;4.10;1.08;;;18.50;99.90;;;;;;5043255;28;20120;-73
2023/07/31 11:18:05;;;;;;;1.33;0.77;;;18.50;99.90;;;;;;5045069;28;20120;-73
2023/07/31 11:20:31;;;;;;;4.03;0.88;;;18.50;99.90;;;;;;5044399;28;20052;-73
2023/07/31 11:23:06;;;;;;;3.08;0.70;;;18.40;99.90;;;;;;5044387;28;20029;-72
2023/07/31 11:25:32;;;;;;;2.47;0.90;;;18.40;99.90;;;;;;5042450;28;20037;-73
2023/07/31 11:28:12;;;;;;;2.55;1.13;;;18.40;99.90;;;;;;5043510;28;20033;-72
2023/07/31 11:30:38;;;;;;;3.60;0.80;;;18.30;99.90;;;;;;5042761;28;20051;-72
2023/07/31 11:33:05;;;;;;;4.53;1.23;;;18.20;99.90;;;;;;5044790;28;20029;-72
2023/07/31 11:35:35;;;;;;;2.83;1.00;;;18.20;99.90;;;;;;5042519;28;20039;-73
2023/07/31 11:38:01;;;;;;;3.53;1.20;;;18.20;99.90;;;;;;5042657;28;20546;-73
2023/07/31 11:40:29;;;;;;;4.75;1.75;;;18.20;99.90;;;;;;5043818;28;20051;-72
2023/07/31 11:42:58;;;;;;;6.65;1.80;;;18.20;99.90;;;;;;5043292;28;20033;-74
2023/07/31 11:45:27;;;;;;;3.92;1.45;;;18.20;99.90;;;;;;5043464;28;20586;-73
2023/07/31 11:47:57;;;;;;;5.05;2.28;;;18.30;99.90;;;;;;5043970;28;20497;-73
2023/07/31 11:50:25;;;;;;;3.63;2.15;;;18.30;99.90;;;;;;5043001;28;20099;-74
2023/07/31 11:52:59;;;;;;;6.18;2.33;;;18.30;99.90;;;;;;5044588;28;20112;-74
2023/07/31 11:55:25;;;;;;;6.97;3.00;;;18.20;99.90;;;;;;5041261;28;20067;-72
2023/07/31 11:57:52;;;;;;;6.30;2.80;;;18.20;99.90;;;;;;5043993;28;20032;-73
2023/07/31 12:00:19;;;;;;;10.88;2.63;;;18.30;99.90;;;;;;5042115;28;20036;-74
2023/07/31 12:02:45;;;;;;;5.85;3.17;;;18.30;99.90;;;;;;5041695;28;20033;-72
2023/07/31 12:05:14;;;;;;;6.70;2.33;;;18.20;99.90;;;;;;5042566;28;20095;-73
2023/07/31 12:07:47;;;;;;;4.53;2.28;;;18.20;99.90;;;;;;5043445;28;20089;-72
2023/07/31 12:10:27;;;;;;;7.20;2.25;;;18.20;99.90;;;;;;5042759;28;20103;-73
2023/07/31 12:13:20;;;;;;;3.72;2.00;;;18.10;99.90;;;;;;5040192;28;20117;-73
2023/07/31 12:15:46;;;;;;;3.50;1.98;;;18.20;99.90;;;;;;5039684;28;20041;-73
2023/07/31 12:18:14;;;;;;;6.57;1.92;;;18.20;99.90;;;;;;5042422;28;20087;-73
2023/07/31 12:20:44;;;;;;;3.78;2.08;;;18.10;99.90;;;;;;5043166;28;20040;-73
2023/07/31 12:23:33;;;;;;;3.35;1.70;;;18.10;99.90;;;;;;5042198;28;20080;-73
2023/07/31 12:26:10;;;;;;;3.38;1.80;;;18.10;99.90;;;;;;5042036;28;20519;-74
2023/07/31 12:28:47;;;;;;;3.17;1.50;;;18.10;99.90;;;;;;5040765;28;20115;-73
2023/07/31 12:31:18;;;;;;;3.78;2.13;;;18.20;99.90;;;;;;5043385;28;20043;-74
2023/07/31 12:33:44;;;;;;;3.88;1.95;;;18.20;99.90;;;;;;5042536;28;20037;-73
2023/07/31 12:36:10;;;;;;;3.08;1.63;;;18.30;99.90;;;;;;5042497;28;20091;-72
2023/07/31 12:38:35;;;;;;;3.20;1.20;;;18.30;99.90;;;;;;5039312;28;20033;-73
2023/07/31 12:41:01;;;;;;;2.78;1.55;;;18.30;99.90;;;;;;5042045;28;20033;-73
2023/07/31 12:43:27;;;;;;;2.85;1.50;;;18.30;99.90;;;;;;5042851;28;20037;-73
2023/07/31 12:45:54;;;;;;;5.10;1.60;;;18.40;99.90;;;;;;5044154;28;20044;-74
2023/07/31 12:48:20;;;;;;;3.38;1.88;;;18.50;99.90;;;;;;5041322;28;20040;-75